Meath Environmental Platform

Observations for Trim Market St

Time AQI Temp °C Hum % Pres Pa CO μg/m³ H₂S μg/m³ NO μg/m³ NO₂ μg/m³ O₃ μg/m³ SO₂ μg/m³ PM1 μg/m³ PM2.5 μg/m³ PM10 μg/m³
Tuesday 11 August 2026
19:25 3 29.3 30 66,184 0 13.55 0.65 26.51 66.64 0 2.14 6.01 6.61
19:24 3 29.3 30 66,175 0 10.39 0.66 24.02 63.93 0 1.43 4.93 5.43
19:23 3 29.4 30 66,192 0 9.29 0.64 20.65 66.63 0 1.43 5.48 6.03
19:22 3 29.4 30 66,184 0 12.45 0.64 26.83 62.04 0 1.43 4.94 5.43
19:19 3 29.6 30 66,202 0 11.18 0.62 23.81 62.18 0 1.43 4.96 5.45
19:18 3 29.7 30 66,194 0 10.61 0.61 24.76 65.34 0 0.71 3.87 4.06
19:17 3 29.7 30 66,214 0 7.58 0.61 19.44 61.38 0 2.14 5.5 5.79
19:16 3 29.8 29 66,242 0 8.81 0.6 20.68 60.85 0 1.43 4.97 5.46
19:15 3 29.8 29 66,242 0 13.28 0.6 27.56 62.88 0 2.85 6.05 6.66
19:14 3 29.9 29 66,244 0 11.54 0.59 23.52 63.85 0 2.85 7.15 9.26
19:13 3 30 29 66,242 0 10.73 0.57 24.94 62.93 0 2.85 6.06 6.67
19:12 3 30 29 66,242 0 9.28 0.59 21.8 62.43 0 2.14 4.43 4.88
19:11 3 30.1 29 66,244 0 10.64 0.58 20.76 65.05 0 1.43 3.88 4.27
19:10 3 30.1 29 66,246 0 12.81 0.57 26.91 61.17 0 1.43 4.98 5.48
19:09 3 30.2 29 66,240 0 11.92 0.55 27.09 61.39 0 1.43 4.98 5.48
19:08 3 30.2 29 66,236 0 14.36 0.56 29.32 61.53 0 0.71 4.44 4.88
19:07 3 30.3 29 66,231 0 13.12 0.55 28.42 62.85 0 0.71 3.9 4.29
19:06 3 30.3 29 66,254 0 16.69 0.59 33.76 62.15 0 1.43 4.99 5.49
19:04 3 30.4 29 66,258 0 13.28 0.6 62.2 44.08 0 2.85 6.09 6.7
18:59 3 30.5 28 66,284 0 18.64 0.55 35.5 61.81 0 1.43 4.47 4.92